Aeroporto :
LOGIN :

Iscrizione | Disclaimer

   EN    FR    IT 

 










Sommario :    VFR   VFR Marginale   IFR   IFR Intensivo   IFR Molto Intensivo
Visibilità : 
Base nubi : 
>= 8 km
>= 3000ft
5 / 8 km
1000 / 3000 ft
1500m / 5 km
500 / 1000 ft
800 / 1500m
200 / 500 ft
< 800m
< 200 ft
Simboli :   Temporali  Nebbia  Neve Forte  Precipitazioni Forti  Vento > 20 kt
SIGMETs :   Varie  Temporali  Ghiacco  Turbolenza  Onda orograficha  Ceneri Vulcaniche






- Altitudine del aeroporto : 36 ft
- Codice IATA : LTQ


LFAT - Le Touquet

ULTIMO METAR :
  • 091430Z AUTO 33024KT 9999 BKN041 BKN047 09/02 Q1014 BECMG 33020G30KT

METARs OBSOLETI :
  • 091400Z AUTO 34025KT 9999 BKN041 OVC048 09/03 Q1013 BECMG 33020G30KT
  • 091330Z AUTO 34026KT 9999 BKN042 BKN049 09/02 Q1012 BECMG 33020G30KT
  • 091300Z AUTO 34027G38KT 9999 OVC041 09/03 Q1011 NOSIG
  • 091230Z AUTO 33026G37KT 9999 BKN036 OVC044 09/03 Q1010 NOSIG
  • 091200Z AUTO 33025KT 9999 OVC035 09/04 Q1009 BECMG 33025G40KT

TAF TAF LFAT
Valido dal 09 a 15 ore il 10 a 00 ore UTC


091400Z 0915/0924 33025G40KT 9999 SCT030
BECMG 0915/0917 33020G30KT
BECMG 0918/0920 33015KT
BECMG 0922/0924 30005KT
ATIS : +33 3 21 06 62 84



MetMap, La meteo Aeronautica in un colpo d'occhio ! - Copyright ORBIFLY Dicembre 2007 - Disclaimer

ORBIFLY MET'MAP TEAM :

Programmazione e sviluppo : Alexandra Zaïnal
Concezione : Baudouin d'Aumeries
Aiuto per la programmazione : Marc-Olivier Méhu
Supporto tecnico e logistico : Manuel Goepfert
Aiuto per la traduzione : Arnaldo La Scala

Contatto : metmap@orbifly.com




FONTI E CREDITI :

   NOAA